Time;durP1;ratioP1;P1;durP2;ratioP2;P2;SDS_P1;SDS_P2;PMS_P1;PMS_P2;Temp;Humidity;BMP_temperature;BMP_pressure;BME280_temperature;BME280_humidity;BME280_pressure;Samples;Min_cycle;Max_cycle;Signal;HPM_P1;HPM_P2
2022/10/26 00:00:00;;;;;;;10.38;4.72;;;11.40;99.90;;;;;;5080678;28;20127;-64
2022/10/26 00:02:26;;;;;;;12.55;5.53;;;11.40;99.90;;;;;;5062648;28;20040;-64
2022/10/26 00:04:51;;;;;;;8.82;4.80;;;11.50;99.90;;;;;;5081452;28;20465;-64
2022/10/26 00:07:17;;;;;;;9.20;5.40;;;11.50;99.90;;;;;;5061036;28;20092;-64
2022/10/26 00:09:42;;;;;;;13.30;5.45;;;11.50;99.90;;;;;;5077330;28;20039;-64
2022/10/26 00:12:08;;;;;;;12.32;5.15;;;11.50;99.90;;;;;;5081959;28;20450;-64
2022/10/26 00:14:34;;;;;;;11.38;5.30;;;11.50;99.90;;;;;;5080944;28;20390;-64
2022/10/26 00:16:59;;;;;;;8.65;4.93;;;11.50;99.90;;;;;;5081845;28;20437;-64
2022/10/26 00:19:25;;;;;;;8.57;4.88;;;11.40;99.90;;;;;;5080981;28;20055;-65
2022/10/26 00:21:51;;;;;;;11.65;5.13;;;11.50;99.90;;;;;;5081962;28;20226;-65
2022/10/26 00:24:17;;;;;;;14.90;5.55;;;11.50;99.90;;;;;;5081018;28;20032;-65
2022/10/26 00:26:42;;;;;;;10.10;4.95;;;11.60;99.90;;;;;;5063831;28;20448;-65
2022/10/26 00:29:11;;;;;;;9.57;4.90;;;11.60;99.90;;;;;;5079425;28;20028;-65
2022/10/26 00:31:37;;;;;;;11.35;4.93;;;11.60;99.90;;;;;;5081978;28;20044;-65
2022/10/26 00:34:02;;;;;;;8.13;4.22;;;11.60;99.90;;;;;;5062771;28;20032;-64
2022/10/26 00:36:28;;;;;;;11.60;4.75;;;11.60;99.90;;;;;;5081617;28;20035;-65
2022/10/26 00:38:55;;;;;;;8.25;4.50;;;11.60;99.90;;;;;;5081391;28;20115;-65
2022/10/26 00:41:27;;;;;;;8.13;4.07;;;11.70;99.90;;;;;;5080580;28;20123;-65
2022/10/26 00:43:54;;;;;;;6.95;3.88;;;11.70;99.90;;;;;;5080225;28;20494;-65
2022/10/26 00:46:25;;;;;;;8.60;3.75;;;11.80;99.90;;;;;;5081744;28;20028;-65
2022/10/26 00:48:54;;;;;;;7.28;3.90;;;11.90;99.90;;;;;;5081614;28;20028;-65
2022/10/26 00:51:31;;;;;;;6.05;3.95;;;12.00;99.90;;;;;;5078953;28;20020;-66
2022/10/26 00:53:58;;;;;;;8.13;3.80;;;12.00;99.90;;;;;;5056421;28;20491;-65
2022/10/26 00:56:24;;;;;;;16.35;3.88;;;12.00;99.90;;;;;;5081021;28;20032;-65
2022/10/26 00:58:50;;;;;;;7.75;3.25;;;12.00;99.90;;;;;;5083975;28;20092;-65
2022/10/26 01:01:16;;;;;;;8.07;4.05;;;12.10;99.90;;;;;;5083868;28;20602;-65
2022/10/26 01:03:42;;;;;;;5.30;3.10;;;12.10;99.90;;;;;;5085998;28;20099;-65
2022/10/26 01:06:08;;;;;;;9.23;3.33;;;12.10;99.90;;;;;;5083750;28;20075;-65
2022/10/26 01:08:34;;;;;;;5.07;3.53;;;12.10;99.90;;;;;;5066707;28;20035;-65
2022/10/26 01:11:01;;;;;;;6.78;3.67;;;12.10;99.90;;;;;;5084749;28;20040;-65
2022/10/26 01:13:29;;;;;;;10.70;3.85;;;12.20;99.90;;;;;;5075620;28;20085;-65
2022/10/26 01:16:14;;;;;;;7.38;2.60;;;12.20;99.90;;;;;;5085448;28;20064;-65
2022/10/26 01:18:57;;;;;;;9.38;2.63;;;12.30;99.90;;;;;;5031492;28;20025;-65
2022/10/26 01:21:40;;;;;;;4.70;2.17;;;12.30;99.90;;;;;;5074445;28;20040;-65
2022/10/26 01:24:09;;;;;;;7.30;2.80;;;12.40;99.90;;;;;;5083144;28;20032;-65
2022/10/26 01:27:03;;;;;;;8.57;2.63;;;12.40;99.90;;;;;;5085910;28;20262;-65
2022/10/26 01:29:52;;;;;;;10.73;2.40;;;12.40;99.90;;;;;;5080411;28;20028;-65
2022/10/26 01:32:37;;;;;;;8.68;2.80;;;12.50;99.90;;;;;;5083018;28;20558;-65
2022/10/26 01:35:30;;;;;;;7.10;2.47;;;12.50;99.90;;;;;;5084537;28;20032;-65
2022/10/26 01:38:07;;;;;;;7.00;2.63;;;12.40;99.90;;;;;;5070670;28;20036;-64
2022/10/26 01:40:52;;;;;;;4.20;2.40;;;12.50;99.90;;;;;;5084325;28;20124;-65
2022/10/26 01:43:20;;;;;;;7.20;2.30;;;12.50;99.90;;;;;;5083631;28;20023;-65
2022/10/26 01:45:47;;;;;;;7.00;2.30;;;12.60;99.90;;;;;;5082770;28;20059;-65
2022/10/26 01:48:18;;;;;;;7.75;2.45;;;12.60;99.90;;;;;;5082216;28;20036;-65
2022/10/26 01:50:46;;;;;;;10.40;2.58;;;12.60;99.90;;;;;;5083622;28;20116;-64
2022/10/26 01:53:16;;;;;;;5.85;2.35;;;12.60;99.90;;;;;;5083486;28;20040;-65
2022/10/26 01:55:50;;;;;;;6.00;2.55;;;12.60;99.90;;;;;;5084350;28;20100;-65
2022/10/26 01:58:38;;;;;;;4.93;2.08;;;12.70;99.90;;;;;;5082194;28;20119;-65
2022/10/26 02:01:31;;;;;;;6.70;2.13;;;12.70;99.90;;;;;;5082010;28;20128;-65
2022/10/26 02:04:48;;;;;;;5.88;2.20;;;12.70;99.90;;;;;;5081834;28;20043;-65
2022/10/26 02:07:23;;;;;;;6.30;1.83;;;12.80;99.90;;;;;;5080399;28;20089;-65
2022/10/26 02:10:27;;;;;;;7.80;2.45;;;12.80;99.90;;;;;;5082429;28;20056;-65
2022/10/26 02:13:03;;;;;;;3.95;2.17;;;12.80;99.90;;;;;;5081832;28;20123;-65
2022/10/26 02:15:48;;;;;;;4.65;2.20;;;12.80;99.90;;;;;;5082277;28;20028;-65
2022/10/26 02:18:49;;;;;;;6.57;2.40;;;12.90;99.90;;;;;;5064295;28;20584;-65
2022/10/26 02:21:20;;;;;;;5.95;2.17;;;12.90;99.90;;;;;;5079066;28;20663;-65
2022/10/26 02:23:47;;;;;;;6.22;2.50;;;12.90;99.90;;;;;;5064724;28;20032;-65
2022/10/26 02:26:16;;;;;;;5.47;2.47;;;12.90;99.90;;;;;;5084102;28;20044;-65
2022/10/26 02:28:46;;;;;;;5.28;2.50;;;13.10;99.90;;;;;;5082794;28;20042;-65
2022/10/26 02:31:13;;;;;;;6.95;2.70;;;13.10;99.90;;;;;;5064702;28;20028;-65
2022/10/26 02:33:44;;;;;;;4.70;2.75;;;13.10;99.90;;;;;;5084599;28;20032;-65
2022/10/26 02:36:21;;;;;;;5.18;2.65;;;13.10;99.90;;;;;;5081159;28;20039;-65
2022/10/26 02:38:48;;;;;;;12.43;2.80;;;13.00;99.90;;;;;;5086501;28;20036;-65
2022/10/26 02:41:16;;;;;;;9.85;2.50;;;13.10;99.90;;;;;;5082974;28;20031;-65
2022/10/26 02:43:49;;;;;;;12.38;2.53;;;13.10;99.90;;;;;;5084529;28;20032;-65
2022/10/26 02:46:19;;;;;;;5.18;2.47;;;13.10;99.90;;;;;;5083541;28;20166;-65
2022/10/26 02:48:45;;;;;;;7.90;2.30;;;13.20;99.90;;;;;;5066077;28;20038;-65
2022/10/26 02:51:17;;;;;;;8.27;3.08;;;13.10;99.90;;;;;;5064966;28;20475;-65
2022/10/26 02:54:24;;;;;;;8.10;2.58;;;13.10;99.90;;;;;;5082359;28;20037;-65
2022/10/26 02:56:59;;;;;;;8.15;2.40;;;13.10;99.90;;;;;;5037060;28;20495;-65
2022/10/26 02:59:29;;;;;;;6.60;2.45;;;13.20;99.90;;;;;;5078164;28;20028;-65
2022/10/26 03:01:55;;;;;;;8.63;2.60;;;13.20;99.90;;;;;;5082294;28;20457;-65
2022/10/26 03:04:28;;;;;;;6.13;2.40;;;13.30;99.90;;;;;;5062626;28;20089;-65
2022/10/26 03:06:54;;;;;;;6.63;2.20;;;13.20;99.90;;;;;;5082926;28;20036;-65
2022/10/26 03:09:20;;;;;;;6.30;2.50;;;13.30;99.90;;;;;;5076089;28;20107;-65
2022/10/26 03:11:45;;;;;;;6.95;2.30;;;13.30;99.90;;;;;;5086277;28;20566;-65
2022/10/26 03:14:11;;;;;;;4.88;2.30;;;13.30;99.90;;;;;;5080824;28;20032;-65
2022/10/26 03:16:37;;;;;;;10.27;2.40;;;13.30;99.90;;;;;;5083912;28;20024;-65
2022/10/26 03:19:02;;;;;;;8.93;2.33;;;13.30;99.90;;;;;;5081367;28;20043;-65
2022/10/26 03:21:28;;;;;;;6.30;2.45;;;13.30;99.90;;;;;;5084254;28;20025;-65
2022/10/26 03:23:54;;;;;;;5.22;2.38;;;13.20;99.90;;;;;;5081941;28;20399;-65
2022/10/26 03:26:19;;;;;;;9.15;2.75;;;13.30;99.90;;;;;;5081818;28;20078;-65
2022/10/26 03:28:45;;;;;;;9.60;2.55;;;13.30;99.90;;;;;;5081871;28;20035;-65
2022/10/26 03:31:10;;;;;;;6.95;2.78;;;13.30;99.90;;;;;;5083424;28;20399;-65
2022/10/26 03:33:36;;;;;;;7.43;2.35;;;13.30;99.90;;;;;;5064325;28;20036;-65
2022/10/26 03:36:02;;;;;;;5.72;2.00;;;13.40;99.90;;;;;;5078530;28;20074;-65
2022/10/26 03:38:27;;;;;;;4.85;2.05;;;13.40;99.90;;;;;;5079016;28;20039;-65
2022/10/26 03:40:53;;;;;;;6.78;2.00;;;13.40;99.90;;;;;;5082120;28;20039;-65
2022/10/26 03:43:18;;;;;;;7.22;2.10;;;13.40;99.90;;;;;;5084552;28;20028;-65
2022/10/26 03:45:44;;;;;;;8.13;2.13;;;13.50;99.90;;;;;;5081710;28;20039;-65
2022/10/26 03:48:10;;;;;;;10.00;2.20;;;13.50;99.90;;;;;;5080610;28;20032;-65
2022/10/26 03:50:35;;;;;;;10.02;2.30;;;13.50;99.90;;;;;;5082532;28;20067;-65
2022/10/26 03:53:01;;;;;;;8.10;2.58;;;13.50;99.90;;;;;;5076785;28;20048;-66
2022/10/26 03:55:26;;;;;;;6.55;2.50;;;13.50;99.90;;;;;;5059670;28;20040;-65
2022/10/26 03:57:52;;;;;;;6.40;1.98;;;13.60;99.90;;;;;;5061080;28;20450;-65
2022/10/26 04:00:18;;;;;;;7.57;2.10;;;13.60;99.90;;;;;;5055236;28;20387;-65
2022/10/26 04:02:50;;;;;;;7.82;2.05;;;13.70;99.90;;;;;;5061707;28;20033;-65
2022/10/26 04:05:15;;;;;;;9.73;2.05;;;13.70;99.90;;;;;;5061048;28;20025;-65
2022/10/26 04:07:42;;;;;;;4.38;2.00;;;13.70;99.90;;;;;;5059207;28;20042;-65
2022/10/26 04:10:08;;;;;;;5.00;1.98;;;13.70;99.90;;;;;;5058992;28;20669;-65
2022/10/26 04:12:38;;;;;;;6.82;1.83;;;13.70;99.90;;;;;;5053784;28;20056;-65
2022/10/26 04:15:08;;;;;;;6.95;1.90;;;13.70;99.90;;;;;;5055437;28;20044;-65
2022/10/26 04:17:34;;;;;;;9.55;2.10;;;13.70;99.90;;;;;;5054940;28;20036;-65
2022/10/26 04:20:00;;;;;;;9.43;1.90;;;13.80;99.90;;;;;;5060885;28;20867;-65
2022/10/26 04:22:25;;;;;;;5.47;1.77;;;13.70;99.90;;;;;;5060294;28;20106;-65
2022/10/26 04:24:51;;;;;;;8.60;2.05;;;13.80;99.90;;;;;;5059083;28;20060;-64
2022/10/26 04:27:16;;;;;;;6.38;1.90;;;13.80;99.90;;;;;;5060266;28;20029;-65
2022/10/26 04:29:42;;;;;;;6.72;1.88;;;13.80;99.90;;;;;;5060325;28;20033;-66
2022/10/26 04:32:07;;;;;;;7.75;2.00;;;13.90;99.90;;;;;;5057636;28;20119;-65
2022/10/26 04:34:33;;;;;;;7.15;1.70;;;13.90;99.90;;;;;;5056343;28;20117;-65
2022/10/26 04:36:59;;;;;;;11.05;2.22;;;13.90;99.90;;;;;;5060461;28;20041;-65
2022/10/26 04:39:24;;;;;;;9.43;1.90;;;14.00;99.90;;;;;;5057385;28;20029;-65
2022/10/26 04:41:50;;;;;;;7.85;2.03;;;13.90;99.90;;;;;;5058754;28;20044;-65
2022/10/26 04:44:16;;;;;;;6.68;2.00;;;13.90;99.90;;;;;;5059090;28;20175;-65
2022/10/26 04:46:41;;;;;;;5.13;1.60;;;14.00;99.90;;;;;;5061330;28;20037;-65
2022/10/26 04:49:07;;;;;;;2.92;1.58;;;14.00;99.90;;;;;;5054410;28;20340;-65
2022/10/26 04:51:32;;;;;;;6.88;2.10;;;14.00;99.90;;;;;;5058933;28;20043;-65
2022/10/26 04:53:58;;;;;;;5.45;1.70;;;14.00;99.90;;;;;;5059435;28;20511;-65
2022/10/26 04:56:23;;;;;;;8.02;1.83;;;14.00;99.90;;;;;;5058336;28;20660;-65
2022/10/26 04:58:51;;;;;;;6.43;1.77;;;14.00;99.90;;;;;;5057158;28;20050;-65
2022/10/26 05:01:17;;;;;;;5.82;1.95;;;14.00;99.90;;;;;;5061778;28;20191;-65
2022/10/26 05:03:43;;;;;;;9.85;2.33;;;14.00;99.90;;;;;;5056366;28;20116;-65
2022/10/26 05:06:08;;;;;;;6.65;1.95;;;14.00;99.90;;;;;;5058004;28;20505;-65
2022/10/26 05:08:34;;;;;;;8.25;1.95;;;14.00;99.90;;;;;;5058689;28;20060;-65
2022/10/26 05:10:59;;;;;;;7.07;1.83;;;14.00;99.90;;;;;;5059093;28;20139;-65
2022/10/26 05:13:25;;;;;;;7.30;2.00;;;14.00;99.90;;;;;;5061111;28;20028;-65
2022/10/26 05:15:53;;;;;;;6.65;2.13;;;14.00;99.90;;;;;;5053875;28;20064;-65
2022/10/26 05:18:19;;;;;;;6.30;2.00;;;14.00;99.90;;;;;;5053762;28;20055;-65
2022/10/26 05:20:44;;;;;;;11.88;2.13;;;14.00;99.90;;;;;;5053231;28;20673;-65
2022/10/26 05:23:11;;;;;;;6.35;1.90;;;14.00;99.90;;;;;;5056502;28;20032;-65
2022/10/26 05:25:37;;;;;;;6.88;2.17;;;13.90;99.90;;;;;;5057515;28;20100;-65
2022/10/26 05:28:06;;;;;;;4.93;1.65;;;13.90;99.90;;;;;;5056469;28;20522;-65
2022/10/26 05:30:32;;;;;;;4.80;1.80;;;14.00;99.90;;;;;;5059362;28;20032;-65
2022/10/26 05:33:01;;;;;;;10.77;1.92;;;14.00;99.90;;;;;;5059275;28;20777;-65
2022/10/26 05:35:28;;;;;;;7.47;2.05;;;13.90;99.90;;;;;;5054305;28;20029;-65
2022/10/26 05:37:53;;;;;;;6.75;1.90;;;13.90;99.90;;;;;;5057895;28;20035;-65
2022/10/26 05:40:19;;;;;;;7.63;1.90;;;13.90;99.90;;;;;;5057047;28;20028;-65
2022/10/26 05:42:45;;;;;;;4.45;1.70;;;13.90;99.90;;;;;;5059383;28;20597;-65
2022/10/26 05:45:12;;;;;;;9.38;1.90;;;13.90;99.90;;;;;;5059521;28;20060;-65
2022/10/26 05:47:42;;;;;;;5.47;1.83;;;13.90;99.90;;;;;;5058581;28;20037;-64
2022/10/26 05:50:08;;;;;;;6.40;1.83;;;13.90;99.90;;;;;;5061528;28;20459;-65
2022/10/26 05:52:48;;;;;;;9.68;2.22;;;14.00;99.90;;;;;;5056193;28;20472;-65
2022/10/26 05:55:16;;;;;;;8.68;2.10;;;14.00;99.90;;;;;;5054438;28;20032;-64
2022/10/26 05:57:42;;;;;;;5.78;2.05;;;14.00;99.90;;;;;;5061513;28;20040;-65
2022/10/26 06:00:13;;;;;;;7.25;2.13;;;14.00;99.90;;;;;;5061049;28;20361;-65
2022/10/26 06:03:07;;;;;;;8.70;2.00;;;14.00;99.90;;;;;;5061478;28;20122;-64
2022/10/26 06:05:53;;;;;;;5.80;2.28;;;14.00;99.90;;;;;;5056491;28;20032;-65
2022/10/26 06:08:20;;;;;;;7.90;2.15;;;14.00;99.90;;;;;;5062777;28;20139;-65
2022/10/26 06:10:47;;;;;;;7.22;2.40;;;14.00;99.90;;;;;;5056724;28;20036;-65
2022/10/26 06:13:13;;;;;;;5.30;2.03;;;14.00;99.90;;;;;;5062602;28;20838;-65
2022/10/26 06:16:06;;;;;;;9.57;2.03;;;14.10;99.90;;;;;;5055326;28;20040;-65
2022/10/26 06:18:47;;;;;;;9.55;2.20;;;14.00;99.90;;;;;;5080674;28;20039;-65
2022/10/26 06:21:29;;;;;;;8.73;2.17;;;14.10;99.90;;;;;;5079039;28;21490;-62
2022/10/26 06:24:04;;;;;;;5.65;2.28;;;14.10;99.90;;;;;;5081451;28;20709;-61
2022/10/26 06:27:00;;;;;;;9.20;2.47;;;14.20;99.90;;;;;;5082306;28;20036;-62
2022/10/26 06:29:56;;;;;;;9.00;2.30;;;14.30;99.90;;;;;;5081268;28;20027;-62
2022/10/26 06:32:25;;;;;;;5.18;1.67;;;14.20;99.90;;;;;;5074415;28;20051;-62
2022/10/26 06:34:58;;;;;;;8.65;2.50;;;14.20;99.90;;;;;;5084158;28;20762;-61
2022/10/26 06:37:24;;;;;;;8.00;2.30;;;14.30;99.90;;;;;;5075960;28;20079;-62
2022/10/26 06:39:51;;;;;;;7.88;2.30;;;14.20;99.90;;;;;;5077309;28;20736;-61
2022/10/26 06:42:17;;;;;;;8.15;2.13;;;14.20;99.90;;;;;;5080301;28;20028;-62
2022/10/26 06:44:43;;;;;;;8.25;2.55;;;14.20;99.90;;;;;;5075620;28;20452;-61
2022/10/26 06:47:15;;;;;;;6.57;1.85;;;14.20;99.90;;;;;;5073487;28;20020;-60
2022/10/26 06:49:56;;;;;;;3.85;2.10;;;14.20;99.90;;;;;;5081985;28;20115;-61
2022/10/26 06:52:45;;;;;;;7.45;2.10;;;14.20;99.90;;;;;;5070492;28;20048;-62
2022/10/26 06:55:15;;;;;;;11.07;2.50;;;14.30;99.90;;;;;;5078095;28;20570;-62
2022/10/26 06:57:42;;;;;;;8.95;2.33;;;14.30;99.90;;;;;;5076061;28;20024;-61
2022/10/26 07:00:19;;;;;;;6.20;2.25;;;14.20;99.90;;;;;;5077507;28;20515;-62
2022/10/26 07:02:45;;;;;;;7.05;2.03;;;14.30;99.90;;;;;;5052698;28;20064;-62
2022/10/26 07:05:11;;;;;;;9.57;2.58;;;14.30;99.90;;;;;;5075491;28;20053;-61
2022/10/26 07:07:42;;;;;;;8.55;2.55;;;14.30;99.90;;;;;;5080174;28;20032;-62
2022/10/26 07:10:09;;;;;;;8.95;2.20;;;14.30;99.90;;;;;;5075868;28;20742;-62
2022/10/26 07:12:35;;;;;;;7.63;2.22;;;14.30;99.90;;;;;;5073420;28;20045;-61
2022/10/26 07:15:01;;;;;;;7.20;2.28;;;14.20;99.90;;;;;;5054912;28;20561;-61
2022/10/26 07:17:27;;;;;;;9.02;2.30;;;14.20;99.90;;;;;;5074422;28;20056;-62
2022/10/26 07:19:53;;;;;;;9.60;2.30;;;14.30;99.90;;;;;;5078154;28;20360;-61
2022/10/26 07:22:19;;;;;;;11.32;2.35;;;14.30;99.90;;;;;;5077782;28;20051;-62
2022/10/26 07:24:49;;;;;;;8.25;2.60;;;14.30;99.90;;;;;;5079714;28;20537;-61
2022/10/26 07:27:14;;;;;;;7.97;2.78;;;14.20;99.90;;;;;;5080170;28;20028;-61
2022/10/26 07:29:40;;;;;;;9.35;3.20;;;14.20;99.90;;;;;;5074780;28;20032;-61
2022/10/26 07:32:06;;;;;;;12.73;3.63;;;14.30;99.90;;;;;;5079133;28;20486;-61
2022/10/26 07:34:32;;;;;;;11.68;3.85;;;14.40;99.90;;;;;;5071887;28;20151;-61
2022/10/26 07:37:00;;;;;;;9.52;3.60;;;14.40;99.90;;;;;;5079076;28;20144;-61
2022/10/26 07:39:26;;;;;;;12.57;4.10;;;14.50;99.90;;;;;;5079017;28;21023;-61
2022/10/26 07:41:52;;;;;;;19.05;4.10;;;14.60;99.90;;;;;;5075927;28;20059;-60
2022/10/26 07:44:18;;;;;;;7.80;3.67;;;14.70;99.90;;;;;;5071832;28;20028;-60
2022/10/26 07:46:43;;;;;;;8.95;3.17;;;14.70;99.90;;;;;;5076381;28;20025;-61
2022/10/26 07:49:09;;;;;;;8.68;3.67;;;14.70;99.90;;;;;;5056126;28;20098;-62
2022/10/26 07:51:35;;;;;;;12.55;3.40;;;14.80;99.90;;;;;;5071759;28;20028;-61
2022/10/26 07:54:00;;;;;;;11.27;3.42;;;14.80;99.90;;;;;;5079241;28;20023;-61
2022/10/26 07:56:26;;;;;;;11.68;2.97;;;14.90;99.90;;;;;;5060606;28;20114;-61
2022/10/26 07:58:52;;;;;;;6.85;2.70;;;14.90;99.90;;;;;;5070631;28;20040;-61
2022/10/26 08:01:18;;;;;;;7.68;2.75;;;15.00;99.90;;;;;;5074412;28;20081;-61
2022/10/26 08:03:43;;;;;;;5.00;2.38;;;15.00;99.90;;;;;;5075308;28;20027;-61
2022/10/26 08:06:09;;;;;;;10.18;2.70;;;15.00;99.90;;;;;;5061800;28;20127;-61
2022/10/26 08:08:35;;;;;;;5.13;2.40;;;15.10;99.90;;;;;;5079487;28;20177;-61
2022/10/26 08:11:01;;;;;;;5.97;2.40;;;15.20;99.90;;;;;;5077105;28;20044;-60
2022/10/26 08:13:26;;;;;;;11.30;3.80;;;15.20;99.90;;;;;;5077097;28;20086;-59
2022/10/26 08:15:59;;;;;;;6.05;2.38;;;15.30;99.90;;;;;;5073349;28;20076;-61
2022/10/26 08:18:25;;;;;;;7.95;1.95;;;15.30;99.90;;;;;;5078081;28;20508;-60
2022/10/26 08:20:51;;;;;;;6.63;2.05;;;15.40;99.90;;;;;;5081057;28;20028;-60
2022/10/26 08:23:16;;;;;;;9.07;2.15;;;15.40;99.90;;;;;;5057061;28;20111;-62
2022/10/26 08:25:42;;;;;;;6.53;2.30;;;15.50;99.90;;;;;;5058447;28;20122;-61
2022/10/26 08:28:07;;;;;;;7.75;2.20;;;15.50;99.90;;;;;;5079752;28;20601;-61
2022/10/26 08:30:33;;;;;;;8.05;2.50;;;15.60;99.90;;;;;;5076649;28;20114;-61
2022/10/26 08:33:01;;;;;;;5.03;2.58;;;15.60;99.90;;;;;;5070601;28;20459;-61
2022/10/26 08:35:27;;;;;;;7.72;2.42;;;15.70;99.90;;;;;;5080401;28;20250;-61
2022/10/26 08:37:53;;;;;;;9.05;2.60;;;15.70;99.90;;;;;;5078099;28;20426;-60
2022/10/26 08:40:25;;;;;;;8.82;2.60;;;15.70;99.90;;;;;;5078702;28;20028;-61
2022/10/26 08:42:58;;;;;;;6.70;2.65;;;15.70;99.90;;;;;;5063576;28;20036;-61
2022/10/26 08:45:27;;;;;;;7.88;2.75;;;15.70;99.90;;;;;;5076283;28;20036;-61
2022/10/26 08:47:59;;;;;;;6.20;2.22;;;15.80;99.90;;;;;;5080527;28;20044;-60
2022/10/26 08:50:31;;;;;;;10.15;2.35;;;15.90;99.90;;;;;;5078580;28;20698;-61
2022/10/26 08:53:02;;;;;;;9.10;2.35;;;15.90;99.90;;;;;;5078581;28;20118;-60
2022/10/26 08:55:38;;;;;;;8.73;2.33;;;16.10;99.90;;;;;;5078543;28;20148;-62
2022/10/26 08:58:12;;;;;;;7.18;2.33;;;16.20;99.90;;;;;;5079508;28;20363;-61
2022/10/26 09:00:39;;;;;;;6.05;1.88;;;16.20;99.90;;;;;;5081787;28;20347;-60
2022/10/26 09:03:13;;;;;;;4.63;1.98;;;16.20;99.90;;;;;;5057779;28;20317;-62
2022/10/26 09:06:02;;;;;;;7.20;3.35;;;16.30;99.90;;;;;;5074504;28;20046;-61
2022/10/26 09:08:41;;;;;;;9.32;3.05;;;16.40;99.90;;;;;;5040184;28;20090;-61
2022/10/26 09:11:29;;;;;;;5.75;2.20;;;16.40;99.90;;;;;;5055138;28;20420;-62
2022/10/26 09:14:03;;;;;;;7.15;2.20;;;16.30;99.90;;;;;;5039481;28;20143;-61
2022/10/26 09:16:45;;;;;;;3.53;1.90;;;16.20;99.90;;;;;;5079046;28;20060;-60
2022/10/26 09:19:45;;;;;;;12.18;2.58;;;16.20;99.90;;;;;;5075362;28;20024;-61
2022/10/26 09:22:45;;;;;;;9.40;2.47;;;16.20;99.90;;;;;;5064877;28;20044;-61
2022/10/26 09:25:19;;;;;;;6.43;2.20;;;16.20;99.90;;;;;;5070507;28;20036;-60
2022/10/26 09:27:54;;;;;;;10.95;2.95;;;16.20;99.90;;;;;;5065457;28;20047;-64
2022/10/26 09:30:21;;;;;;;5.78;2.25;;;16.30;99.90;;;;;;5078706;28;20028;-64
2022/10/26 09:32:55;;;;;;;7.88;2.38;;;16.40;99.90;;;;;;5084733;28;20414;-64
2022/10/26 09:35:24;;;;;;;8.32;2.50;;;16.40;99.90;;;;;;5080203;28;20051;-64
2022/10/26 09:38:13;;;;;;;7.30;2.25;;;16.60;99.90;;;;;;5079428;28;20039;-64
2022/10/26 09:40:47;;;;;;;7.10;2.47;;;16.80;99.90;;;;;;5075907;28;20072;-64
2022/10/26 09:43:18;;;;;;;8.43;2.53;;;16.90;99.90;;;;;;5081152;28;20124;-64
2022/10/26 09:45:47;;;;;;;7.50;2.25;;;16.80;99.90;;;;;;5080210;28;20032;-63
2022/10/26 09:48:28;;;;;;;8.07;2.22;;;17.00;99.90;;;;;;5077477;28;20040;-64
2022/10/26 09:50:55;;;;;;;8.48;2.25;;;17.00;99.90;;;;;;5080740;28;20142;-64
2022/10/26 09:53:21;;;;;;;4.28;1.98;;;17.00;99.90;;;;;;5052225;28;20048;-64
2022/10/26 09:55:51;;;;;;;9.27;2.50;;;17.10;99.90;;;;;;5082887;28;20680;-64
2022/10/26 09:58:22;;;;;;;9.55;2.33;;;17.20;99.90;;;;;;5083545;28;20371;-64
2022/10/26 10:00:49;;;;;;;4.93;1.83;;;17.10;99.90;;;;;;5072148;28;20032;-64
2022/10/26 10:03:20;;;;;;;5.88;2.28;;;17.10;99.90;;;;;;5074745;28;20032;-64
2022/10/26 10:05:46;;;;;;;5.50;2.35;;;17.30;99.90;;;;;;5075043;28;20036;-64
2022/10/26 10:08:22;;;;;;;5.47;2.15;;;17.30;99.90;;;;;;5061938;28;20375;-64
2022/10/26 10:11:12;;;;;;;5.82;2.17;;;17.30;99.90;;;;;;5061987;28;20399;-64
2022/10/26 10:13:43;;;;;;;6.93;2.22;;;17.30;99.90;;;;;;5081117;28;20036;-64
2022/10/26 10:16:20;;;;;;;6.47;2.40;;;17.30;99.90;;;;;;5078648;28;20189;-64
2022/10/26 10:18:55;;;;;;;4.47;2.00;;;17.40;99.90;;;;;;5086298;28;20036;-64
2022/10/26 10:21:43;;;;;;;6.78;2.00;;;17.60;99.90;;;;;;5078038;28;20479;-64
2022/10/26 10:24:21;;;;;;;9.88;2.70;;;;;;;;;;5080989;28;20043;-64
2022/10/26 10:27:11;;;;;;;6.20;2.00;;;17.70;99.90;;;;;;5065082;28;20093;-63
2022/10/26 10:29:44;;;;;;;8.07;2.20;;;17.70;99.90;;;;;;5069218;28;20127;-64
2022/10/26 10:32:20;;;;;;;5.20;2.10;;;17.70;99.90;;;;;;5064456;28;20722;-64
2022/10/26 10:34:51;;;;;;;7.53;2.00;;;17.70;99.90;;;;;;5077437;28;20090;-64
2022/10/26 10:37:33;;;;;;;8.80;2.55;;;17.80;99.90;;;;;;5082679;28;20530;-64
2022/10/26 10:40:18;;;;;;;13.02;2.67;;;17.80;99.90;;;;;;5080971;28;20025;-64
2022/10/26 10:42:45;;;;;;;6.03;2.47;;;17.80;99.90;;;;;;5078043;28;20048;-64
2022/10/26 10:45:22;;;;;;;5.53;2.30;;;17.90;99.90;;;;;;5079438;28;20109;-64
2022/10/26 10:48:04;;;;;;;5.55;2.38;;;18.00;99.90;;;;;;5082057;28;20178;-64
2022/10/26 10:50:32;;;;;;;8.10;2.60;;;18.00;99.90;;;;;;5082793;28;20040;-64
2022/10/26 10:53:27;;;;;;;6.38;2.22;;;18.00;99.90;;;;;;5082264;28;20109;-64
2022/10/26 10:56:25;;;;;;;8.82;2.20;;;18.00;99.90;;;;;;5081364;28;20062;-64
2022/10/26 10:59:18;;;;;;;10.30;2.35;;;18.00;99.90;;;;;;5080849;28;20035;-64
2022/10/26 11:02:22;;;;;;;8.98;2.47;;;18.00;99.90;;;;;;5061499;28;20491;-64
2022/10/26 11:05:19;;;;;;;9.27;2.47;;;18.00;99.90;;;;;;5079084;28;20375;-64
2022/10/26 11:08:15;;;;;;;7.10;2.00;;;18.10;99.90;;;;;;5076993;28;20479;-64
2022/10/26 11:10:52;;;;;;;6.18;2.38;;;18.10;99.90;;;;;;5080496;28;20043;-64
2022/10/26 11:13:26;;;;;;;6.45;2.20;;;18.10;99.90;;;;;;5080940;28;20040;-64
2022/10/26 11:16:00;;;;;;;8.52;2.40;;;18.10;99.90;;;;;;5081794;28;20082;-63
2022/10/26 11:18:34;;;;;;;4.90;2.10;;;18.20;99.90;;;;;;5072358;28;20613;-64
2022/10/26 11:21:28;;;;;;;6.13;2.15;;;18.30;99.90;;;;;;5078904;28;20040;-64
2022/10/26 11:24:09;;;;;;;4.05;1.90;;;18.20;99.90;;;;;;5077283;28;20100;-64
2022/10/26 11:26:52;;;;;;;8.95;2.00;;;18.30;99.90;;;;;;5087750;28;20035;-64
2022/10/26 11:29:37;;;;;;;6.43;1.70;;;18.40;99.90;;;;;;5077275;28;20107;-64
2022/10/26 11:32:23;;;;;;;9.85;2.25;;;18.30;99.90;;;;;;5080300;28;20044;-64
2022/10/26 11:35:01;;;;;;;4.45;2.05;;;18.30;99.90;;;;;;5056676;28;20036;-64
2022/10/26 11:37:42;;;;;;;10.73;2.20;;;18.30;99.90;;;;;;5078858;28;20039;-64
2022/10/26 11:40:40;;;;;;;7.22;1.80;;;18.40;99.90;;;;;;5078692;28;20032;-64
2022/10/26 11:43:23;;;;;;;7.32;2.00;;;18.40;99.90;;;;;;5028910;28;20028;-64
2022/10/26 11:46:15;;;;;;;;;;;18.50;99.90;;;;;;5063208;28;20033;-64
2022/10/26 11:49:03;;;;;;;4.13;1.85;;;18.50;99.90;;;;;;5078194;28;20327;-64
2022/10/26 11:51:29;;;;;;;5.43;2.20;;;18.40;99.90;;;;;;5074481;28;20028;-65
2022/10/26 11:53:57;;;;;;;7.72;1.77;;;18.40;99.90;;;;;;5081853;28;20059;-64
2022/10/26 11:56:32;;;;;;;3.65;1.73;;;18.50;99.90;;;;;;5080223;28;20054;-64
2022/10/26 11:58:58;;;;;;;3.30;1.50;;;18.50;99.90;;;;;;5082843;28;20574;-65
2022/10/26 12:01:25;;;;;;;3.97;1.70;;;18.60;99.90;;;;;;5079961;28;20429;-65
2022/10/26 12:03:53;;;;;;;6.53;1.50;;;18.60;99.90;;;;;;5075064;28;20126;-64
2022/10/26 12:06:23;;;;;;;10.63;1.70;;;18.60;99.90;;;;;;5078403;28;20371;-64
2022/10/26 12:09:05;;;;;;;3.30;1.52;;;18.60;99.90;;;;;;5082457;28;20052;-64
2022/10/26 12:11:37;;;;;;;3.55;1.30;;;18.60;99.90;;;;;;5063378;28;20095;-65
2022/10/26 12:14:21;;;;;;;5.72;1.80;;;18.60;99.90;;;;;;5059407;28;20043;-64
2022/10/26 12:17:01;;;;;;;6.78;1.80;;;18.70;99.90;;;;;;5063937;28;20115;-64
2022/10/26 12:19:38;;;;;;;6.38;1.60;;;18.80;99.90;;;;;;5079839;28;20088;-64
2022/10/26 12:22:07;;;;;;;4.07;1.55;;;18.80;99.90;;;;;;5079059;28;20545;-64
2022/10/26 12:24:34;;;;;;;4.00;1.27;;;18.80;99.90;;;;;;5073189;28;20463;-65
2022/10/26 12:27:04;;;;;;;2.88;1.40;;;18.80;99.90;;;;;;5081997;28;20032;-65
2022/10/26 12:29:35;;;;;;;4.78;1.13;;;18.80;99.90;;;;;;5076268;28;20059;-65
2022/10/26 12:32:01;;;;;;;8.45;1.95;;;18.80;99.90;;;;;;5080154;28;20127;-65
2022/10/26 12:34:30;;;;;;;2.75;1.30;;;18.80;99.90;;;;;;5082361;28;20043;-65
2022/10/26 12:36:55;;;;;;;5.05;1.50;;;18.80;99.90;;;;;;5080722;28;20363;-65
2022/10/26 12:39:35;;;;;;;3.47;1.45;;;18.70;99.90;;;;;;5073407;28;20047;-65
2022/10/26 12:42:03;;;;;;;5.07;1.58;;;18.70;99.90;;;;;;5075685;28;20090;-65
2022/10/26 12:44:37;;;;;;;3.45;1.35;;;18.70;99.90;;;;;;5071832;28;20032;-64
2022/10/26 12:47:04;;;;;;;10.18;1.90;;;18.80;99.90;;;;;;5076537;28;20706;-64
2022/10/26 12:50:07;;;;;;;59.88;40.35;;;18.80;99.90;;;;;;5060409;28;20139;-64
2022/10/26 12:52:55;;;;;;;3.75;1.92;;;18.90;99.90;;;;;;5079408;28;20039;-65
2022/10/26 12:55:44;;;;;;;8.43;1.70;;;18.80;99.90;;;;;;5079187;28;20036;-64
2022/10/26 12:58:25;;;;;;;6.85;1.83;;;18.80;99.90;;;;;;5084392;28;20036;-65
2022/10/26 13:01:29;;;;;;;2.75;1.20;;;18.80;99.90;;;;;;5082495;28;20036;-65
2022/10/26 13:04:13;;;;;;;4.53;1.40;;;18.90;99.90;;;;;;5085108;28;20527;-65
2022/10/26 13:06:44;;;;;;;4.28;1.45;;;18.80;99.90;;;;;;5082606;28;20395;-64
2022/10/26 13:09:20;;;;;;;2.75;1.35;;;18.90;99.90;;;;;;5083722;28;20736;-65
2022/10/26 13:11:51;;;;;;;4.43;1.65;;;18.90;99.90;;;;;;5084183;28;20024;-65